createdAt,value
2023-04-18T00:00:17.484Z,87.7479
2023-04-18T00:01:18.111Z,87.7117
2023-04-18T00:02:19.067Z,87.8294
2023-04-18T00:03:19.312Z,87.3801
2023-04-18T00:04:21.362Z,87.5586
2023-04-18T00:05:22.206Z,87.7254
2023-04-18T00:06:23.030Z,87.6197
2023-04-18T00:07:23.928Z,87.5979
2023-04-18T00:08:24.270Z,87.4230
2023-04-18T00:09:25.142Z,87.2355
2023-04-18T00:10:25.793Z,86.9060
2023-04-18T00:11:26.466Z,86.2809
2023-04-18T00:12:27.043Z,86.5756
2023-04-18T00:13:27.632Z,87.0695
2023-04-18T00:14:27.666Z,86.8470
2023-04-18T00:15:28.487Z,87.0023
2023-04-18T00:16:29.165Z,86.7218
2023-04-18T00:17:30.044Z,86.8447
2023-04-18T00:18:30.556Z,86.8691
2023-04-18T00:19:31.077Z,86.9757
2023-04-18T00:20:31.643Z,86.6891
2023-04-18T00:21:32.175Z,87.0357
2023-04-18T00:22:32.802Z,86.5458
2023-04-18T00:23:33.779Z,86.3777
2023-04-18T00:24:34.800Z,86.4157
2023-04-18T00:25:35.404Z,86.1750
2023-04-18T00:26:36.041Z,86.5064
2023-04-18T00:27:36.436Z,86.6723
2023-04-18T00:28:37.133Z,86.8215
2023-04-18T00:29:37.516Z,86.8794
2023-04-18T00:30:38.121Z,86.4579
2023-04-18T00:31:39.318Z,86.0142
2023-04-18T00:32:39.911Z,86.0449
2023-04-18T00:33:40.637Z,86.2555
2023-04-18T00:34:41.214Z,86.3002
2023-04-18T00:35:41.699Z,86.4082
2023-04-18T00:36:42.260Z,86.3758
2023-04-18T00:37:42.753Z,86.3632
2023-04-18T00:38:43.298Z,86.2717
2023-04-18T00:39:43.814Z,86.1680
2023-04-18T00:40:44.198Z,86.0349
2023-04-18T00:41:44.807Z,86.4381
2023-04-18T00:42:45.378Z,86.2506
2023-04-18T00:43:45.794Z,86.2573
2023-04-18T00:44:46.828Z,85.9611
2023-04-18T00:45:47.215Z,86.2163
2023-04-18T00:46:48.415Z,86.1190
2023-04-18T00:47:49.289Z,86.1227
2023-04-18T00:48:49.996Z,86.3097
2023-04-18T00:49:50.881Z,86.1856
2023-04-18T00:50:51.549Z,86.5963
2023-04-18T00:51:52.029Z,86.6786
2023-04-18T00:52:52.636Z,86.5261
2023-04-18T00:53:53.106Z,86.6348
2023-04-18T00:54:54.227Z,86.7059
2023-04-18T00:55:54.856Z,86.8175
2023-04-18T00:56:55.330Z,86.5076
2023-04-18T00:57:55.883Z,86.7302
2023-04-18T00:58:56.453Z,86.5226
2023-04-18T00:59:56.843Z,86.3145
2023-04-18T01:00:57.435Z,86.3076
2023-04-18T01:01:58.110Z,86.3277
2023-04-18T01:02:58.362Z,86.6543
2023-04-18T01:03:58.449Z,86.7367
2023-04-18T01:04:59.164Z,86.7052
2023-04-18T01:05:59.850Z,86.8309
2023-04-18T01:07:00.416Z,86.6154
2023-04-18T01:08:00.987Z,86.7022
2023-04-18T01:09:01.727Z,86.5303
2023-04-18T01:10:02.471Z,86.2176
2023-04-18T01:11:02.850Z,85.8252
2023-04-18T01:12:03.424Z,85.9465
2023-04-18T01:13:03.849Z,86.3415
2023-04-18T01:14:04.354Z,86.5884
2023-04-18T01:15:04.885Z,86.7561
2023-04-18T01:16:05.503Z,86.2341
2023-04-18T01:17:06.685Z,86.0742
2023-04-18T01:18:07.452Z,86.3484
2023-04-18T01:19:07.907Z,86.6736
2023-04-18T01:20:08.566Z,86.5526
2023-04-18T01:21:09.306Z,86.4232
2023-04-18T01:22:09.901Z,86.3070
2023-04-18T01:23:10.461Z,86.2519
2023-04-18T01:24:11.154Z,86.2398
2023-04-18T01:25:11.537Z,86.4105
2023-04-18T01:26:12.217Z,86.4816
2023-04-18T01:27:12.798Z,86.2603
2023-04-18T01:28:13.393Z,86.1632
2023-04-18T01:29:13.762Z,86.4869
2023-04-18T01:30:14.823Z,86.6751
2023-04-18T01:31:15.498Z,86.6961
2023-04-18T01:32:16.102Z,86.6111
2023-04-18T01:33:17.039Z,86.5341
2023-04-18T01:34:17.785Z,86.6852
2023-04-18T01:35:18.297Z,86.9915
2023-04-18T01:36:18.853Z,87.2333
2023-04-18T01:37:19.263Z,86.7512
2023-04-18T01:38:19.751Z,86.4557
2023-04-18T01:39:20.452Z,86.5441
2023-04-18T01:40:20.876Z,86.3951
2023-04-18T01:41:21.477Z,86.7747
2023-04-18T01:42:22.411Z,86.7057
2023-04-18T01:43:22.849Z,86.4988
2023-04-18T01:44:23.448Z,86.5687
2023-04-18T01:45:23.894Z,87.0226
2023-04-18T01:46:24.678Z,86.2291
2023-04-18T01:47:25.704Z,86.2485
2023-04-18T01:48:26.235Z,86.6157
2023-04-18T01:49:26.869Z,86.9282
2023-04-18T01:50:27.439Z,86.2575
2023-04-18T01:51:27.864Z,86.6433
2023-04-18T01:52:28.612Z,86.8111
2023-04-18T01:53:28.941Z,87.1145
2023-04-18T01:54:29.963Z,87.1511
2023-04-18T01:55:30.510Z,86.9442
2023-04-18T01:56:30.941Z,87.1070
2023-04-18T01:57:31.684Z,87.1528
2023-04-18T01:58:32.328Z,86.8504
2023-04-18T01:59:32.645Z,87.0352
2023-04-18T02:00:33.259Z,86.9557
2023-04-18T02:01:33.913Z,86.5536
2023-04-18T02:02:35.033Z,87.0357
2023-04-18T02:03:35.583Z,87.2631
2023-04-18T02:04:35.452Z,87.3043
2023-04-18T02:05:36.002Z,87.2284
2023-04-18T02:06:36.559Z,87.1917
2023-04-18T02:07:37.117Z,87.4302
2023-04-18T02:08:37.766Z,87.5998
2023-04-18T02:09:38.195Z,87.7879
2023-04-18T02:10:38.698Z,87.6180
2023-04-18T02:11:39.333Z,87.6190
2023-04-18T02:12:39.748Z,87.7591
2023-04-18T02:13:40.315Z,87.7074
2023-04-18T02:14:40.862Z,87.7930
2023-04-18T02:15:41.204Z,87.7573
2023-04-18T02:16:42.132Z,87.7783
2023-04-18T02:17:42.829Z,87.8531
2023-04-18T02:18:43.539Z,87.6749
2023-04-18T02:19:44.177Z,87.5895
2023-04-18T02:20:44.785Z,87.4701
2023-04-18T02:21:45.335Z,87.4707
2023-04-18T02:22:45.904Z,87.3534
2023-04-18T02:23:46.409Z,87.6504
2023-04-18T02:24:47.230Z,87.6196
2023-04-18T02:25:47.730Z,87.5076
2023-04-18T02:26:48.484Z,87.7874
2023-04-18T02:27:49.214Z,87.9463
2023-04-18T02:28:49.989Z,87.9435
2023-04-18T02:29:50.637Z,87.9742
2023-04-18T02:30:51.590Z,87.7306
2023-04-18T02:31:52.278Z,87.4942
2023-04-18T02:32:53.465Z,87.7239
2023-04-18T02:33:53.957Z,87.9653
2023-04-18T02:34:54.756Z,87.7470
2023-04-18T02:35:55.358Z,87.7041
2023-04-18T02:36:55.815Z,87.8765
2023-04-18T02:37:56.433Z,87.5757
2023-04-18T02:38:56.981Z,87.4832
2023-04-18T02:39:57.377Z,87.3541
2023-04-18T02:40:58.040Z,87.3754
2023-04-18T02:41:58.415Z,87.5284
2023-04-18T02:42:58.990Z,87.6198
2023-04-18T02:43:59.633Z,87.8892
2023-04-18T02:45:00.117Z,87.9570
2023-04-18T02:46:00.873Z,88.1733
2023-04-18T02:47:01.689Z,88.1077
2023-04-18T02:48:02.679Z,87.8058
2023-04-18T02:49:03.556Z,87.6463
2023-04-18T02:50:04.155Z,87.7117
2023-04-18T02:51:04.679Z,88.0293
2023-04-18T02:52:05.301Z,88.2249
2023-04-18T02:53:05.736Z,88.0635
2023-04-18T02:54:06.288Z,88.1640
2023-04-18T02:55:06.897Z,88.3801
2023-04-18T02:56:07.414Z,88.4031
2023-04-18T02:57:08.134Z,88.0602
2023-04-18T02:58:08.744Z,87.9654
2023-04-18T02:59:09.283Z,87.7000
2023-04-18T03:00:09.883Z,87.9431
2023-04-18T03:01:10.381Z,87.9476
2023-04-18T03:02:11.336Z,88.1531
2023-04-18T03:03:11.368Z,88.0279
2023-04-18T03:04:12.325Z,87.9104
2023-04-18T03:05:12.705Z,87.8673
2023-04-18T03:06:13.388Z,87.8671
2023-04-18T03:07:13.766Z,87.8808
2023-04-18T03:08:14.560Z,88.0421
2023-04-18T03:09:14.939Z,88.0236
2023-04-18T03:10:15.542Z,88.1612
2023-04-18T03:11:16.087Z,87.8889
2023-04-18T03:12:16.522Z,87.8576
2023-04-18T03:13:17.108Z,88.1013
2023-04-18T03:14:17.736Z,88.1728
2023-04-18T03:15:18.122Z,87.7978
2023-04-18T03:16:18.986Z,87.9550
2023-04-18T03:17:19.744Z,88.0956
2023-04-18T03:18:20.321Z,88.0866
2023-04-18T03:19:21.059Z,87.8926
2023-04-18T03:20:21.547Z,87.6756
2023-04-18T03:21:22.144Z,87.8016
2023-04-18T03:22:22.813Z,87.9452
2023-04-18T03:23:23.314Z,87.9445
2023-04-18T03:24:23.819Z,87.9679
2023-04-18T03:25:24.183Z,88.0366
2023-04-18T03:26:24.710Z,88.2776
2023-04-18T03:27:25.258Z,88.3307
2023-04-18T03:28:25.776Z,88.3530
2023-04-18T03:29:26.409Z,88.0822
2023-04-18T03:30:27.074Z,88.3295
2023-04-18T03:31:27.767Z,88.4058
2023-04-18T03:32:28.658Z,88.3218
2023-04-18T03:33:29.309Z,88.1813
2023-04-18T03:34:29.751Z,88.2708
2023-04-18T03:35:30.430Z,87.8153
2023-04-18T03:36:30.987Z,88.0397
2023-04-18T03:37:31.523Z,87.8989
2023-04-18T03:38:32.107Z,87.9190
2023-04-18T03:39:32.545Z,87.9481
2023-04-18T03:40:33.141Z,88.1673
2023-04-18T03:41:33.682Z,88.2831
2023-04-18T03:42:34.336Z,88.4266
2023-04-18T03:43:34.991Z,88.4774
2023-04-18T03:44:36.245Z,88.4385
2023-04-18T03:45:36.825Z,88.4383
2023-04-18T03:46:38.085Z,88.3417
2023-04-18T03:47:38.997Z,88.4140
2023-04-18T03:48:40.396Z,88.1202
2023-04-18T03:50:40.259Z,88.3470
2023-04-18T03:51:40.971Z,88.3727
2023-04-18T03:52:41.371Z,87.8008
2023-04-18T03:53:41.734Z,88.0380
2023-04-18T03:54:42.886Z,88.0767
2023-04-18T03:55:43.294Z,88.2762
2023-04-18T03:56:43.978Z,88.0448
2023-04-18T03:57:44.478Z,87.9128
2023-04-18T03:58:44.906Z,87.7226
2023-04-18T03:59:47.321Z,88.1122
2023-04-18T04:00:45.772Z,88.0898
2023-04-18T04:01:46.290Z,87.9106
2023-04-18T04:02:46.812Z,87.8946
2023-04-18T04:03:47.443Z,88.0114
2023-04-18T04:04:47.505Z,87.7002
2023-04-18T04:05:48.245Z,88.0006
2023-04-18T04:06:48.945Z,87.9800
2023-04-18T04:07:49.589Z,87.6930
2023-04-18T04:08:50.145Z,87.7720
2023-04-18T04:09:50.761Z,87.6002
2023-04-18T04:10:51.184Z,87.4363
2023-04-18T04:11:51.674Z,87.8675
2023-04-18T04:12:52.282Z,87.6949
2023-04-18T04:13:52.720Z,87.4969
2023-04-18T04:14:53.930Z,87.6131
2023-04-18T04:15:54.487Z,87.4831
2023-04-18T04:16:55.307Z,87.4922
2023-04-18T04:17:56.187Z,87.8345
2023-04-18T04:18:56.949Z,87.7130
2023-04-18T04:19:57.359Z,87.8416
2023-04-18T04:20:57.939Z,87.9445
2023-04-18T04:21:58.346Z,87.9788
2023-04-18T04:22:58.948Z,87.9340
2023-04-18T04:23:59.588Z,88.1026
2023-04-18T04:25:00.304Z,88.1572
2023-04-18T04:26:00.912Z,88.0808
2023-04-18T04:27:01.557Z,88.1641
2023-04-18T04:28:02.532Z,88.0244
2023-04-18T04:29:03.201Z,88.3824
2023-04-18T04:30:03.931Z,88.0196
2023-04-18T04:31:05.025Z,88.1135
2023-04-18T04:32:05.159Z,88.1942
2023-04-18T04:33:06.129Z,88.1800
2023-04-18T04:36:07.374Z,87.9911
2023-04-18T04:37:08.144Z,88.1830
2023-04-18T04:38:08.718Z,87.9720
2023-04-18T04:39:09.454Z,88.1212
2023-04-18T04:40:10.669Z,88.2664
2023-04-18T04:41:11.593Z,88.3995
2023-04-18T04:42:12.804Z,88.3370
2023-04-18T04:43:13.888Z,88.0376
2023-04-18T04:44:14.851Z,88.0527
2023-04-18T04:45:15.429Z,88.1989
2023-04-18T04:46:16.210Z,88.1798
2023-04-18T04:47:16.801Z,88.1249
2023-04-18T04:48:17.034Z,88.0914
2023-04-18T04:49:17.935Z,88.2965
2023-04-18T04:50:18.869Z,88.4159
2023-04-18T04:51:19.674Z,88.4272
2023-04-18T04:52:20.373Z,88.4020
2023-04-18T04:53:21.000Z,88.3576
2023-04-18T04:54:21.519Z,88.2898
2023-04-18T04:55:21.985Z,88.3409
2023-04-18T04:56:22.932Z,88.0942
2023-04-18T04:57:23.615Z,88.0410
2023-04-18T04:58:24.155Z,87.8770
2023-04-18T04:59:24.792Z,87.8366
2023-04-18T05:00:25.606Z,87.7904
2023-04-18T05:01:26.423Z,88.1445
2023-04-18T05:02:26.857Z,87.9440
2023-04-18T05:03:28.747Z,87.7334
2023-04-18T05:04:29.097Z,87.7275
2023-04-18T05:05:30.202Z,87.9066
2023-04-18T05:06:30.846Z,87.9931
2023-04-18T05:07:31.836Z,87.8174
2023-04-18T05:08:32.683Z,88.2071
2023-04-18T05:09:33.267Z,88.3285
2023-04-18T05:10:33.901Z,88.3547
2023-04-18T05:11:34.585Z,88.2838
2023-04-18T05:12:35.184Z,88.2565
2023-04-18T05:13:36.160Z,88.2531
2023-04-18T05:14:36.553Z,88.5367
2023-04-18T05:15:37.463Z,88.3832
2023-04-18T05:16:37.709Z,88.4401
2023-04-18T05:17:38.745Z,88.5098
2023-04-18T05:18:39.478Z,88.3820
2023-04-18T05:19:40.340Z,88.3974
2023-04-18T05:20:41.013Z,88.5757
2023-04-18T05:21:41.731Z,88.4083
2023-04-18T05:22:43.033Z,88.4731
2023-04-18T05:23:42.859Z,88.2949
2023-04-18T05:24:43.056Z,88.3290
2023-04-18T05:25:43.713Z,88.0999
2023-04-18T05:26:44.697Z,88.2036
2023-04-18T05:27:45.946Z,88.2494
2023-04-18T05:28:46.802Z,88.3242
2023-04-18T05:29:47.579Z,87.9861
2023-04-18T05:30:48.912Z,87.9497
2023-04-18T05:31:49.906Z,88.2602
2023-04-18T05:32:50.312Z,88.0736
2023-04-18T05:33:50.334Z,88.0694
2023-04-18T05:34:51.460Z,88.0293
2023-04-18T05:35:53.496Z,87.9469
2023-04-18T05:36:53.668Z,88.1882
2023-04-18T05:37:54.476Z,88.0735
2023-04-18T05:38:55.371Z,87.9667
2023-04-18T05:39:55.938Z,87.7127
2023-04-18T05:40:56.290Z,87.7395
2023-04-18T05:41:56.724Z,87.6594
2023-04-18T05:42:57.911Z,87.7727
2023-04-18T05:44:05.261Z,87.8808
2023-04-18T05:45:02.438Z,88.1032
2023-04-18T05:48:04.054Z,87.8254
2023-04-18T05:49:04.813Z,88.0463
2023-04-18T05:50:05.567Z,88.2499
2023-04-18T05:51:06.487Z,88.0653
2023-04-18T05:52:07.678Z,87.8658
2023-04-18T05:53:08.531Z,87.9328
2023-04-18T05:54:09.151Z,87.8633
2023-04-18T05:55:09.147Z,87.7050
2023-04-18T05:56:09.647Z,87.7442
2023-04-18T05:57:10.696Z,87.8016
2023-04-18T05:58:11.356Z,87.5723
2023-04-18T05:59:11.957Z,87.6649
2023-04-18T06:00:12.666Z,87.5244
2023-04-18T06:01:13.889Z,87.5745
2023-04-18T06:02:14.722Z,87.5288
2023-04-18T06:03:16.047Z,87.4885
2023-04-18T06:04:16.809Z,87.5435
2023-04-18T06:05:17.253Z,87.1737
2023-04-18T06:06:17.934Z,87.1276
2023-04-18T06:07:18.386Z,87.5523
2023-04-18T06:08:19.212Z,87.4485
2023-04-18T06:09:19.852Z,87.6758
2023-04-18T06:10:20.556Z,87.6591
2023-04-18T06:11:21.403Z,87.6262
2023-04-18T06:12:22.324Z,87.5788
2023-04-18T06:13:22.993Z,87.4276
2023-04-18T06:14:23.828Z,87.4711
2023-04-18T06:15:25.050Z,87.7393
2023-04-18T06:16:25.974Z,87.3373
2023-04-18T06:17:25.972Z,87.2493
2023-04-18T06:18:26.915Z,87.3250
2023-04-18T06:19:27.100Z,87.4286
2023-04-18T06:20:28.323Z,87.0698
2023-04-18T06:21:28.897Z,87.4198
2023-04-18T06:22:29.982Z,87.1504
2023-04-18T06:23:30.609Z,87.2457
2023-04-18T06:24:31.357Z,87.3265
2023-04-18T06:25:31.005Z,87.2022
2023-04-18T06:26:31.502Z,87.1513
2023-04-18T06:27:34.535Z,86.7729
2023-04-18T06:28:35.388Z,86.7181
2023-04-18T06:29:36.855Z,86.8550
2023-04-18T06:30:36.220Z,86.6622
2023-04-18T06:31:37.082Z,87.3311
2023-04-18T06:32:37.932Z,87.0413
2023-04-18T06:33:38.618Z,87.0701
2023-04-18T06:34:39.866Z,86.9433
2023-04-18T06:35:40.505Z,86.7379
2023-04-18T06:36:41.153Z,86.9102
2023-04-18T06:37:41.389Z,87.1025
2023-04-18T06:38:42.077Z,86.8545
2023-04-18T06:39:42.772Z,86.6581
2023-04-18T06:40:43.518Z,86.7026
2023-04-18T06:41:44.265Z,86.6126
2023-04-18T06:42:44.756Z,86.3743
2023-04-18T06:44:01.572Z,86.1561
2023-04-18T06:44:46.870Z,86.1643
2023-04-18T06:45:47.602Z,86.2427
2023-04-18T06:46:47.677Z,86.6229
2023-04-18T06:47:48.725Z,86.7952
2023-04-18T06:48:50.434Z,87.1575
2023-04-18T06:49:49.849Z,86.6925
2023-04-18T06:50:50.594Z,86.3077
2023-04-18T06:51:51.220Z,86.1526
2023-04-18T06:52:51.798Z,86.4164
2023-04-18T06:53:52.578Z,86.3465
2023-04-18T06:54:53.379Z,86.1056
2023-04-18T06:55:54.132Z,86.4204
2023-04-18T06:56:55.303Z,86.2856
2023-04-18T06:57:56.516Z,86.4850
2023-04-18T06:58:57.321Z,86.3021
2023-04-18T06:59:58.553Z,86.3030
2023-04-18T07:00:59.191Z,86.3337
2023-04-18T07:02:00.129Z,86.1835
2023-04-18T07:03:00.733Z,86.2577
2023-04-18T07:04:00.928Z,86.3586
2023-04-18T07:05:01.336Z,86.3085
2023-04-18T07:06:01.887Z,86.3179
2023-04-18T07:07:02.691Z,86.5587
2023-04-18T07:08:03.351Z,86.4447
2023-04-18T07:09:04.107Z,86.6299
2023-04-18T07:10:04.679Z,86.6643
2023-04-18T07:11:04.699Z,86.4080
2023-04-18T07:12:05.200Z,86.0702
2023-04-18T07:13:05.751Z,86.0997
2023-04-18T07:14:06.656Z,85.9015
2023-04-18T07:15:07.717Z,85.8959
2023-04-18T07:16:08.377Z,85.7140
2023-04-18T07:17:09.054Z,85.8287
2023-04-18T07:18:10.036Z,85.7651
2023-04-18T07:19:10.939Z,85.3532
2023-04-18T07:20:12.987Z,85.3493
2023-04-18T07:21:12.436Z,85.1926
2023-04-18T07:22:13.100Z,85.1240
2023-04-18T07:23:13.597Z,85.0629
2023-04-18T07:24:14.509Z,85.2896
2023-04-18T07:25:15.385Z,85.0943
2023-04-18T07:26:15.619Z,84.8943
2023-04-18T07:27:16.353Z,85.1111
2023-04-18T07:28:17.208Z,85.2864
2023-04-18T07:29:17.675Z,84.9921
2023-04-18T07:30:18.470Z,84.9439
2023-04-18T07:31:19.331Z,84.6620
2023-04-18T07:32:20.080Z,84.8860
2023-04-18T07:33:20.895Z,84.6485
2023-04-18T07:34:21.497Z,84.9047
2023-04-18T07:35:22.119Z,84.4610
2023-04-18T07:36:22.889Z,84.7738
2023-04-18T07:37:23.549Z,84.3593
2023-04-18T07:38:24.191Z,84.3391
2023-04-18T07:39:24.818Z,84.3343
2023-04-18T07:40:25.305Z,84.6181
2023-04-18T07:41:26.032Z,84.6396
2023-04-18T07:42:26.551Z,84.5524
2023-04-18T07:43:26.689Z,84.8185
2023-04-18T07:44:26.864Z,84.4207
2023-04-18T07:45:27.257Z,84.3915
2023-04-18T07:46:27.606Z,84.2242
2023-04-18T07:47:32.242Z,84.5345
2023-04-18T07:48:31.432Z,84.4276
2023-04-18T07:49:32.530Z,84.4854
2023-04-18T07:50:33.251Z,84.2000
2023-04-18T07:51:33.673Z,84.0999
2023-04-18T07:52:34.628Z,83.8964
2023-04-18T07:53:35.275Z,83.9171
2023-04-18T07:54:35.728Z,83.5922
2023-04-18T07:55:36.322Z,83.2062
2023-04-18T07:56:36.785Z,83.3764
2023-04-18T07:57:37.478Z,83.1812
2023-04-18T07:58:38.148Z,83.2266
2023-04-18T07:59:39.316Z,83.0567
2023-04-18T08:00:39.377Z,82.7254
2023-04-18T08:01:39.996Z,82.2436
2023-04-18T08:02:41.328Z,82.0953
2023-04-18T08:03:41.267Z,81.7905
2023-04-18T08:04:41.884Z,81.2209
2023-04-18T08:05:43.021Z,81.4726
2023-04-18T08:06:43.849Z,81.1722
2023-04-18T08:07:44.798Z,81.4698
2023-04-18T08:08:45.609Z,81.2368
2023-04-18T08:09:46.771Z,81.2024
2023-04-18T08:10:47.185Z,80.8841
2023-04-18T08:11:47.874Z,80.6355
2023-04-18T08:12:48.606Z,80.4961
2023-04-18T08:13:49.318Z,80.0930
2023-04-18T08:14:50.235Z,79.9739
2023-04-18T08:15:50.966Z,80.2543
2023-04-18T08:16:51.804Z,79.7626
2023-04-18T08:17:52.388Z,79.7960
2023-04-18T08:18:53.093Z,80.2747
2023-04-18T08:19:53.703Z,80.1125
2023-04-18T08:20:54.198Z,80.0138
2023-04-18T08:21:54.887Z,79.5434
2023-04-18T08:23:06.135Z,79.5520
2023-04-18T08:24:01.983Z,80.2015
2023-04-18T08:25:05.547Z,79.7539
2023-04-18T08:26:03.792Z,80.1380
2023-04-18T08:27:04.186Z,80.2413
2023-04-18T08:28:04.882Z,79.6893
2023-04-18T08:29:05.046Z,79.7781
2023-04-18T08:30:05.868Z,80.4122
2023-04-18T08:31:06.580Z,80.8598
2023-04-18T08:32:07.484Z,81.2151
2023-04-18T08:33:08.635Z,81.0790
2023-04-18T08:34:09.271Z,81.1213
2023-04-18T08:35:09.938Z,81.3813
2023-04-18T08:36:10.559Z,81.4880
2023-04-18T08:37:11.077Z,81.3316
2023-04-18T08:38:11.524Z,81.2264
2023-04-18T08:39:12.212Z,80.9000
2023-04-18T08:40:13.283Z,80.2683
2023-04-18T08:41:13.773Z,80.3641
2023-04-18T08:42:14.485Z,79.7684
2023-04-18T08:43:14.994Z,79.5812
2023-04-18T08:44:15.741Z,79.5919
2023-04-18T08:45:16.723Z,79.8995
2023-04-18T08:46:16.973Z,79.2408
2023-04-18T08:47:18.050Z,79.1099
2023-04-18T08:48:19.102Z,78.9923
2023-04-18T08:49:20.173Z,78.8947
2023-04-18T08:50:20.375Z,78.6546
2023-04-18T08:51:20.450Z,78.3977
2023-04-18T08:52:21.023Z,78.5134
2023-04-18T08:53:21.936Z,78.6078
2023-04-18T08:54:22.483Z,77.8711
2023-04-18T08:55:23.357Z,78.3664
2023-04-18T08:56:23.959Z,78.2110
2023-04-18T08:57:24.502Z,78.2595
2023-04-18T08:58:25.409Z,77.9941
2023-04-18T08:59:26.501Z,78.4523
2023-04-18T09:00:27.587Z,79.0887
2023-04-18T09:01:28.382Z,79.0372
2023-04-18T09:02:29.345Z,78.6809
2023-04-18T09:03:29.938Z,78.8715
2023-04-18T09:04:30.826Z,78.7513
2023-04-18T09:05:32.110Z,78.6631
2023-04-18T09:06:32.238Z,78.7023
2023-04-18T09:07:32.953Z,78.3977
2023-04-18T09:08:34.221Z,78.7420
2023-04-18T09:09:35.008Z,78.7537
2023-04-18T09:10:36.787Z,78.0480
2023-04-18T09:11:36.548Z,77.5738
2023-04-18T09:12:37.255Z,77.2354
2023-04-18T09:13:38.439Z,77.4627
2023-04-18T09:14:38.916Z,76.7715
2023-04-18T09:15:39.631Z,76.8099
2023-04-18T09:16:40.783Z,76.6782
2023-04-18T09:17:41.597Z,76.4736
2023-04-18T09:18:42.348Z,76.6709
2023-04-18T09:19:42.752Z,76.2724
2023-04-18T09:20:43.355Z,76.2546
2023-04-18T09:21:44.008Z,76.3578
2023-04-18T09:22:44.844Z,76.5784
2023-04-18T09:23:45.546Z,76.8816
2023-04-18T09:24:46.796Z,76.9507
2023-04-18T09:25:47.797Z,76.5797
2023-04-18T09:26:48.547Z,76.3479
2023-04-18T09:27:48.912Z,76.5255
2023-04-18T09:28:51.219Z,76.1656
2023-04-18T09:29:50.129Z,76.3238
2023-04-18T09:30:50.747Z,76.0504
2023-04-18T09:31:51.693Z,76.0554
2023-04-18T09:32:52.227Z,76.3539
2023-04-18T09:33:53.221Z,76.2724
2023-04-18T09:34:53.908Z,75.7662
2023-04-18T09:35:54.850Z,75.6518
2023-04-18T09:36:55.805Z,75.8140
2023-04-18T09:37:56.857Z,76.0463
2023-04-18T09:38:57.529Z,76.6805
2023-04-18T09:39:58.302Z,76.7693
2023-04-18T09:40:59.080Z,76.6703
2023-04-18T09:41:59.414Z,76.1328
2023-04-18T09:43:00.180Z,75.5667
2023-04-18T09:44:00.682Z,75.9078
2023-04-18T09:45:01.373Z,74.6432
2023-04-18T09:46:02.424Z,74.2459
2023-04-18T09:47:03.195Z,74.9425
2023-04-18T09:48:03.916Z,75.6319
2023-04-18T09:49:04.614Z,75.4217
2023-04-18T09:50:05.922Z,75.1615
2023-04-18T09:51:06.446Z,75.6353
2023-04-18T09:52:07.079Z,76.0526
2023-04-18T09:53:07.477Z,76.5840
2023-04-18T09:54:08.462Z,75.7408
2023-04-18T09:55:08.718Z,75.5777
2023-04-18T09:56:09.408Z,75.1601
2023-04-18T09:57:10.353Z,74.8499
2023-04-18T09:58:10.899Z,74.4341
2023-04-18T09:59:11.590Z,73.8273
2023-04-18T10:00:12.406Z,74.3183
2023-04-18T10:01:12.494Z,73.9047
2023-04-18T10:02:13.761Z,73.8862
2023-04-18T10:03:14.846Z,73.8080
2023-04-18T10:04:15.725Z,73.5937
2023-04-18T10:05:17.244Z,73.1789
2023-04-18T10:06:16.407Z,73.2978
2023-04-18T10:07:17.025Z,73.4996
2023-04-18T10:08:17.592Z,73.6491
2023-04-18T10:09:18.014Z,74.1245
2023-04-18T10:10:18.644Z,73.8860
2023-04-18T10:11:20.320Z,73.4960
2023-04-18T10:12:19.890Z,72.9861
2023-04-18T10:13:20.641Z,72.7395
2023-04-18T10:14:21.836Z,72.5151
2023-04-18T10:15:22.476Z,72.5781
2023-04-18T10:16:23.459Z,72.0280
2023-04-18T10:17:23.481Z,72.0274
2023-04-18T10:18:24.609Z,72.5893
2023-04-18T10:19:24.534Z,73.1969
2023-04-18T10:20:25.101Z,73.2402
2023-04-18T10:21:25.639Z,72.6516
2023-04-18T10:22:26.218Z,72.3433
2023-04-18T10:23:28.095Z,71.8789
2023-04-18T10:24:27.512Z,71.4530
2023-04-18T10:25:28.045Z,71.4592
2023-04-18T10:26:28.693Z,71.6414
2023-04-18T10:27:29.346Z,72.0403
2023-04-18T10:28:29.840Z,72.4985
2023-04-18T10:29:30.805Z,72.7236
2023-04-18T10:30:31.218Z,73.4140
2023-04-18T10:31:32.250Z,73.2486
2023-04-18T10:32:32.902Z,73.2413
2023-04-18T10:33:33.669Z,73.4752
2023-04-18T10:34:33.463Z,73.2706
2023-04-18T10:35:33.486Z,73.5618
2023-04-18T10:36:34.972Z,73.5349
2023-04-18T10:38:34.758Z,73.5129
2023-04-18T10:39:35.326Z,73.8233
2023-04-18T10:40:36.093Z,73.1274
2023-04-18T10:41:36.048Z,73.0726
2023-04-18T10:43:00.314Z,73.3297
2023-04-18T10:44:00.553Z,73.7169
2023-04-18T10:45:01.093Z,73.8836
2023-04-18T10:46:01.754Z,73.6766
2023-04-18T10:47:02.680Z,72.7415
2023-04-18T10:48:03.062Z,72.5092
2023-04-18T10:49:03.219Z,72.3558
2023-04-18T10:50:08.431Z,72.1824
2023-04-18T10:51:09.113Z,72.1307
2023-04-18T10:52:11.766Z,72.6405
2023-04-18T10:53:10.501Z,72.2685
2023-04-18T10:54:11.030Z,72.6702
2023-04-18T10:55:12.266Z,72.2197
2023-04-18T10:56:12.938Z,72.1198
2023-04-18T10:57:13.500Z,71.8980
2023-04-18T10:58:14.177Z,72.0167
2023-04-18T10:59:14.720Z,72.0667
2023-04-18T11:00:15.336Z,71.8470
2023-04-18T11:01:16.508Z,71.1954
2023-04-18T11:02:17.603Z,70.7247
2023-04-18T11:03:17.709Z,69.7704
2023-04-18T11:04:18.092Z,69.4495
2023-04-18T11:05:17.953Z,70.5455
2023-04-18T11:06:18.691Z,69.6880
2023-04-18T11:07:19.181Z,69.2721
2023-04-18T11:08:19.848Z,69.5251
2023-04-18T11:09:20.429Z,69.9602
2023-04-18T11:10:21.025Z,70.0920
2023-04-18T11:11:22.244Z,70.6055
2023-04-18T11:12:22.776Z,71.1673
2023-04-18T11:13:22.822Z,71.3292
2023-04-18T11:14:23.601Z,71.2341
2023-04-18T11:15:24.430Z,71.9626
2023-04-18T11:16:25.177Z,71.4632
2023-04-18T11:17:26.241Z,71.5052
2023-04-18T11:18:26.283Z,70.6052
2023-04-18T11:19:27.093Z,70.1010
2023-04-18T11:20:28.255Z,70.2735
2023-04-18T11:21:30.463Z,69.8152
2023-04-18T11:22:29.087Z,69.3268
2023-04-18T11:23:30.062Z,69.5101
2023-04-18T11:24:30.015Z,69.3812
2023-04-18T11:25:30.710Z,69.0754
2023-04-18T11:26:31.384Z,69.2492
2023-04-18T11:27:31.585Z,69.2295
2023-04-18T11:28:32.468Z,70.2165
2023-04-18T11:29:33.174Z,70.2247
2023-04-18T11:30:33.957Z,69.8348
2023-04-18T11:31:34.962Z,69.9422
2023-04-18T11:32:35.011Z,70.3547
2023-04-18T11:33:35.795Z,71.2293
2023-04-18T11:34:36.541Z,71.1942
2023-04-18T11:35:37.296Z,70.8951
2023-04-18T11:36:37.735Z,70.5815
2023-04-18T11:37:38.487Z,69.7457
2023-04-18T11:38:39.288Z,69.5511
2023-04-18T11:39:39.850Z,69.0312
2023-04-18T11:40:40.650Z,69.1493
2023-04-18T11:41:41.057Z,69.0168
2023-04-18T11:42:41.810Z,68.4394
2023-04-18T11:43:42.530Z,65.6674
2023-04-18T11:44:43.329Z,66.5833
2023-04-18T11:45:43.967Z,67.2570
2023-04-18T11:46:45.035Z,67.1771
2023-04-18T11:47:45.606Z,66.5540
2023-04-18T11:48:46.248Z,66.2482
2023-04-18T11:49:47.362Z,63.4510
2023-04-18T11:50:48.629Z,63.5339
2023-04-18T11:51:49.880Z,64.6245
2023-04-18T11:52:51.139Z,64.0803
2023-04-18T11:53:52.225Z,64.5569
2023-04-18T11:54:52.823Z,64.2564
2023-04-18T11:55:53.394Z,64.4191
2023-04-18T11:56:54.297Z,63.0649
2023-04-18T11:57:55.005Z,63.9626
2023-04-18T11:58:56.171Z,62.9476
2023-04-18T11:59:57.043Z,60.7845
2023-04-18T12:00:57.256Z,63.2026
2023-04-18T12:01:58.904Z,63.7435
2023-04-18T12:02:58.426Z,64.8231
2023-04-18T12:05:59.406Z,61.8100
2023-04-18T12:06:59.531Z,61.7389
2023-04-18T12:08:00.502Z,60.3188
2023-04-18T12:09:00.940Z,61.3567
2023-04-18T12:10:01.838Z,60.3217
2023-04-18T12:11:02.902Z,56.9160
2023-04-18T12:12:03.693Z,58.2747
2023-04-18T12:13:04.633Z,59.6102
2023-04-18T12:14:05.882Z,58.6463
2023-04-18T12:15:06.410Z,58.9849
2023-04-18T12:16:06.210Z,59.6308
2023-04-18T12:17:06.987Z,60.8981
2023-04-18T12:18:07.100Z,61.3316
2023-04-18T12:19:07.902Z,61.4888
2023-04-18T12:20:09.051Z,61.5366
2023-04-18T12:21:09.542Z,60.9225
2023-04-18T12:22:09.692Z,60.9250